Terminal Aerodrome Forecast
Issued by NWS Wilmington, OH

Current Version | Previous Version | Text Only | Print | Product List | Glossary Off
Versions: 1 2 3 4 5 6 7 8 9 10 11 12 13 14 15 16 17 18 19 20 21 22 23 24 25

000
FTUS41 KILN 281700
TAFCVG
TAF
KCVG 281738Z 2818/0124 11007KT P6SM OVC090
     FM282100 09008KT P6SM SCT025 BKN060
     FM010300 10005KT P6SM -SN BKN025 OVC050
     FM010500 12004KT 3SM -SN OVC012
      TEMPO 0107/0109 1/2SM SN OVC008
     FM010900 15004KT 2SM -RAPLSN SCT008 OVC020
     FM011200 18005KT 5SM -RA OVC025
      TEMPO 0114/0118 2SM -RA OVC012
     FM011800 19006KT 5SM -RA OVC018
      TEMPO 0121/0124 3SM -SNRA OVC009=

USA.gov is the U.S. government's official web portal to all federal, state and local government web resources and services.